sensor_id;sensor_type;location;lat;lon;timestamp;P1;durP1;ratioP1;P2;durP2;ratioP2
78453;SDS011;67750;55.832;49.124;2023-06-01T00:00:35;5.75;;;2.70;;
78453;SDS011;67750;55.832;49.124;2023-06-01T00:03:25;5.70;;;3.30;;
78453;SDS011;67750;55.832;49.124;2023-06-01T00:05:56;5.65;;;3.25;;
78453;SDS011;67750;55.832;49.124;2023-06-01T00:08:25;3.83;;;3.02;;
78453;SDS011;67750;55.832;49.124;2023-06-01T00:10:55;4.50;;;2.92;;
78453;SDS011;67750;55.832;49.124;2023-06-01T00:13:24;6.12;;;3.40;;
78453;SDS011;67750;55.832;49.124;2023-06-01T00:15:54;5.22;;;3.37;;
78453;SDS011;67750;55.832;49.124;2023-06-01T00:18:23;5.05;;;2.95;;
78453;SDS011;67750;55.832;49.124;2023-06-01T00:20:54;4.12;;;2.95;;
78453;SDS011;67750;55.832;49.124;2023-06-01T00:23:23;7.97;;;3.62;;
78453;SDS011;67750;55.832;49.124;2023-06-01T00:25:54;5.78;;;3.20;;
78453;SDS011;67750;55.832;49.124;2023-06-01T00:28:24;5.78;;;2.80;;
78453;SDS011;67750;55.832;49.124;2023-06-01T00:30:53;4.40;;;2.95;;
78453;SDS011;67750;55.832;49.124;2023-06-01T00:33:23;6.62;;;3.05;;
78453;SDS011;67750;55.832;49.124;2023-06-01T00:35:52;6.12;;;2.98;;
78453;SDS011;67750;55.832;49.124;2023-06-01T00:38:22;5.35;;;3.00;;
78453;SDS011;67750;55.832;49.124;2023-06-01T00:40:52;4.87;;;2.85;;
78453;SDS011;67750;55.832;49.124;2023-06-01T00:43:21;6.45;;;3.50;;
78453;SDS011;67750;55.832;49.124;2023-06-01T00:45:51;7.30;;;3.00;;
78453;SDS011;67750;55.832;49.124;2023-06-01T00:48:20;4.33;;;3.30;;
78453;SDS011;67750;55.832;49.124;2023-06-01T00:50:50;5.55;;;2.80;;
78453;SDS011;67750;55.832;49.124;2023-06-01T00:53:20;4.90;;;2.70;;
78453;SDS011;67750;55.832;49.124;2023-06-01T00:55:49;5.42;;;2.90;;
78453;SDS011;67750;55.832;49.124;2023-06-01T00:58:19;4.03;;;2.90;;
78453;SDS011;67750;55.832;49.124;2023-06-01T01:00:48;5.40;;;3.00;;
78453;SDS011;67750;55.832;49.124;2023-06-01T01:03:20;5.20;;;2.83;;
78453;SDS011;67750;55.832;49.124;2023-06-01T01:05:52;4.08;;;2.72;;
78453;SDS011;67750;55.832;49.124;2023-06-01T01:19:59;6.70;;;2.92;;
78453;SDS011;67750;55.832;49.124;2023-06-01T01:24:56;4.80;;;3.12;;
78453;SDS011;67750;55.832;49.124;2023-06-01T01:30:09;4.62;;;3.00;;
78453;SDS011;67750;55.832;49.124;2023-06-01T01:32:40;5.47;;;3.12;;
78453;SDS011;67750;55.832;49.124;2023-06-01T01:35:10;4.85;;;3.10;;
78453;SDS011;67750;55.832;49.124;2023-06-01T01:38:15;5.75;;;2.87;;
78453;SDS011;67750;55.832;49.124;2023-06-01T01:40:11;4.72;;;3.30;;
78453;SDS011;67750;55.832;49.124;2023-06-01T01:42:41;5.78;;;2.95;;
78453;SDS011;67750;55.832;49.124;2023-06-01T01:45:10;5.42;;;3.12;;
78453;SDS011;67750;55.832;49.124;2023-06-01T01:50:36;4.12;;;2.90;;
78453;SDS011;67750;55.832;49.124;2023-06-01T01:53:01;5.67;;;3.70;;
78453;SDS011;67750;55.832;49.124;2023-06-01T01:55:31;4.55;;;3.42;;
78453;SDS011;67750;55.832;49.124;2023-06-01T01:58:02;5.62;;;3.72;;
78453;SDS011;67750;55.832;49.124;2023-06-01T02:00:32;4.80;;;3.33;;
78453;SDS011;67750;55.832;49.124;2023-06-01T02:03:02;5.80;;;3.45;;
78453;SDS011;67750;55.832;49.124;2023-06-01T02:05:32;4.90;;;3.20;;
78453;SDS011;67750;55.832;49.124;2023-06-01T02:08:01;6.17;;;3.55;;
78453;SDS011;67750;55.832;49.124;2023-06-01T02:10:32;5.35;;;3.50;;
78453;SDS011;67750;55.832;49.124;2023-06-01T02:13:03;6.22;;;3.40;;
78453;SDS011;67750;55.832;49.124;2023-06-01T02:15:32;4.67;;;2.95;;
78453;SDS011;67750;55.832;49.124;2023-06-01T02:18:02;6.00;;;3.25;;
78453;SDS011;67750;55.832;49.124;2023-06-01T02:20:34;3.77;;;2.95;;
78453;SDS011;67750;55.832;49.124;2023-06-01T02:23:03;5.58;;;3.52;;
78453;SDS011;67750;55.832;49.124;2023-06-01T02:25:33;8.78;;;3.67;;
78453;SDS011;67750;55.832;49.124;2023-06-01T02:28:02;5.62;;;3.30;;
78453;SDS011;67750;55.832;49.124;2023-06-01T02:30:34;5.17;;;3.90;;
78453;SDS011;67750;55.832;49.124;2023-06-01T02:33:03;6.60;;;3.52;;
78453;SDS011;67750;55.832;49.124;2023-06-01T02:35:33;5.85;;;3.65;;
78453;SDS011;67750;55.832;49.124;2023-06-01T02:38:02;7.33;;;4.37;;
78453;SDS011;67750;55.832;49.124;2023-06-01T02:40:32;5.87;;;4.70;;
78453;SDS011;67750;55.832;49.124;2023-06-01T02:43:02;7.42;;;4.20;;
78453;SDS011;67750;55.832;49.124;2023-06-01T02:45:31;6.87;;;4.65;;
78453;SDS011;67750;55.832;49.124;2023-06-01T02:48:02;8.60;;;4.62;;
78453;SDS011;67750;55.832;49.124;2023-06-01T02:50:32;7.05;;;4.47;;
78453;SDS011;67750;55.832;49.124;2023-06-01T02:53:02;5.72;;;3.75;;
78453;SDS011;67750;55.832;49.124;2023-06-01T02:55:32;7.35;;;3.55;;
78453;SDS011;67750;55.832;49.124;2023-06-01T02:58:21;4.65;;;2.77;;
78453;SDS011;67750;55.832;49.124;2023-06-01T03:01:10;4.87;;;3.17;;
78453;SDS011;67750;55.832;49.124;2023-06-01T03:03:41;8.28;;;3.20;;
78453;SDS011;67750;55.832;49.124;2023-06-01T03:06:11;4.33;;;2.87;;
78453;SDS011;67750;55.832;49.124;2023-06-01T03:08:42;5.80;;;3.52;;
78453;SDS011;67750;55.832;49.124;2023-06-01T03:11:14;5.80;;;3.47;;
78453;SDS011;67750;55.832;49.124;2023-06-01T03:13:43;6.17;;;3.90;;
78453;SDS011;67750;55.832;49.124;2023-06-01T03:16:13;6.12;;;3.52;;
78453;SDS011;67750;55.832;49.124;2023-06-01T03:18:45;6.10;;;3.42;;
78453;SDS011;67750;55.832;49.124;2023-06-01T03:21:14;4.28;;;3.20;;
78453;SDS011;67750;55.832;49.124;2023-06-01T03:23:44;6.60;;;3.58;;
78453;SDS011;67750;55.832;49.124;2023-06-01T03:26:13;9.85;;;4.25;;
78453;SDS011;67750;55.832;49.124;2023-06-01T03:28:44;5.85;;;3.70;;
78453;SDS011;67750;55.832;49.124;2023-06-01T03:31:14;7.00;;;3.40;;
78453;SDS011;67750;55.832;49.124;2023-06-01T03:33:44;6.92;;;4.15;;
78453;SDS011;67750;55.832;49.124;2023-06-01T03:36:13;5.72;;;4.15;;
78453;SDS011;67750;55.832;49.124;2023-06-01T03:38:43;5.87;;;3.72;;
78453;SDS011;67750;55.832;49.124;2023-06-01T03:41:13;5.15;;;3.42;;
78453;SDS011;67750;55.832;49.124;2023-06-01T03:43:42;5.85;;;3.83;;
78453;SDS011;67750;55.832;49.124;2023-06-01T03:46:12;4.70;;;3.20;;
78453;SDS011;67750;55.832;49.124;2023-06-01T03:48:42;6.47;;;4.00;;
78453;SDS011;67750;55.832;49.124;2023-06-01T03:51:11;5.65;;;3.62;;
78453;SDS011;67750;55.832;49.124;2023-06-01T03:53:41;6.33;;;3.77;;
78453;SDS011;67750;55.832;49.124;2023-06-01T03:56:11;6.28;;;3.58;;
78453;SDS011;67750;55.832;49.124;2023-06-01T03:58:41;6.50;;;4.03;;
78453;SDS011;67750;55.832;49.124;2023-06-01T04:01:12;6.12;;;3.92;;
78453;SDS011;67750;55.832;49.124;2023-06-01T04:03:43;7.92;;;4.47;;
78453;SDS011;67750;55.832;49.124;2023-06-01T04:06:13;7.25;;;4.10;;
78453;SDS011;67750;55.832;49.124;2023-06-01T04:08:46;7.40;;;4.40;;
78453;SDS011;67750;55.832;49.124;2023-06-01T04:11:17;6.78;;;4.60;;
78453;SDS011;67750;55.832;49.124;2023-06-01T04:13:47;8.15;;;4.70;;
78453;SDS011;67750;55.832;49.124;2023-06-01T04:16:17;7.60;;;4.87;;
78453;SDS011;67750;55.832;49.124;2023-06-01T04:18:47;7.35;;;4.20;;
78453;SDS011;67750;55.832;49.124;2023-06-01T04:24:08;7.37;;;3.95;;
78453;SDS011;67750;55.832;49.124;2023-06-01T04:26:38;7.72;;;4.00;;
78453;SDS011;67750;55.832;49.124;2023-06-01T04:29:08;7.75;;;4.17;;
78453;SDS011;67750;55.832;49.124;2023-06-01T04:31:38;6.83;;;4.20;;
78453;SDS011;67750;55.832;49.124;2023-06-01T04:34:08;6.80;;;4.25;;
78453;SDS011;67750;55.832;49.124;2023-06-01T04:36:38;6.75;;;4.08;;
78453;SDS011;67750;55.832;49.124;2023-06-01T04:39:08;11.50;;;4.83;;
78453;SDS011;67750;55.832;49.124;2023-06-01T04:41:38;5.62;;;3.60;;
78453;SDS011;67750;55.832;49.124;2023-06-01T04:44:08;7.90;;;4.50;;
78453;SDS011;67750;55.832;49.124;2023-06-01T04:46:39;7.72;;;4.00;;
78453;SDS011;67750;55.832;49.124;2023-06-01T04:49:08;6.20;;;3.67;;
78453;SDS011;67750;55.832;49.124;2023-06-01T04:51:39;7.00;;;3.85;;
78453;SDS011;67750;55.832;49.124;2023-06-01T04:54:09;6.72;;;4.00;;
78453;SDS011;67750;55.832;49.124;2023-06-01T04:56:38;6.30;;;3.47;;
78453;SDS011;67750;55.832;49.124;2023-06-01T04:59:09;10.75;;;3.70;;
78453;SDS011;67750;55.832;49.124;2023-06-01T05:01:39;4.75;;;3.25;;
78453;SDS011;67750;55.832;49.124;2023-06-01T05:04:09;9.50;;;3.80;;
78453;SDS011;67750;55.832;49.124;2023-06-01T05:06:39;4.92;;;3.37;;
78453;SDS011;67750;55.832;49.124;2023-06-01T05:09:08;8.23;;;3.30;;
78453;SDS011;67750;55.832;49.124;2023-06-01T05:14:29;6.20;;;3.33;;
78453;SDS011;67750;55.832;49.124;2023-06-01T05:16:59;5.47;;;3.05;;
78453;SDS011;67750;55.832;49.124;2023-06-01T05:19:28;4.58;;;2.75;;
78453;SDS011;67750;55.832;49.124;2023-06-01T05:21:58;5.72;;;3.02;;
78453;SDS011;67750;55.832;49.124;2023-06-01T05:24:28;5.55;;;2.65;;
78453;SDS011;67750;55.832;49.124;2023-06-01T05:26:57;4.05;;;2.60;;
78453;SDS011;67750;55.832;49.124;2023-06-01T05:29:27;5.47;;;2.58;;
78453;SDS011;67750;55.832;49.124;2023-06-01T05:31:56;4.50;;;2.55;;
78453;SDS011;67750;55.832;49.124;2023-06-01T05:34:26;4.87;;;2.62;;
78453;SDS011;67750;55.832;49.124;2023-06-01T05:36:55;4.05;;;2.35;;
78453;SDS011;67750;55.832;49.124;2023-06-01T05:39:25;4.20;;;2.58;;
78453;SDS011;67750;55.832;49.124;2023-06-01T05:41:55;5.35;;;2.50;;
78453;SDS011;67750;55.832;49.124;2023-06-01T05:44:26;4.58;;;2.50;;
78453;SDS011;67750;55.832;49.124;2023-06-01T05:46:56;6.60;;;2.58;;
78453;SDS011;67750;55.832;49.124;2023-06-01T05:49:25;4.42;;;2.55;;
78453;SDS011;67750;55.832;49.124;2023-06-01T05:51:57;6.53;;;2.60;;
78453;SDS011;67750;55.832;49.124;2023-06-01T05:54:28;4.20;;;2.42;;
78453;SDS011;67750;55.832;49.124;2023-06-01T05:56:58;4.10;;;2.40;;
78453;SDS011;67750;55.832;49.124;2023-06-01T05:59:28;4.17;;;2.83;;
78453;SDS011;67750;55.832;49.124;2023-06-01T06:01:57;4.08;;;2.40;;
78453;SDS011;67750;55.832;49.124;2023-06-01T06:04:27;5.20;;;2.40;;
78453;SDS011;67750;55.832;49.124;2023-06-01T06:06:56;4.47;;;2.60;;
78453;SDS011;67750;55.832;49.124;2023-06-01T06:09:26;4.03;;;2.40;;
78453;SDS011;67750;55.832;49.124;2023-06-01T06:11:55;4.35;;;2.98;;
78453;SDS011;67750;55.832;49.124;2023-06-01T06:14:25;4.67;;;2.62;;
78453;SDS011;67750;55.832;49.124;2023-06-01T06:16:55;4.75;;;2.55;;
78453;SDS011;67750;55.832;49.124;2023-06-01T06:19:24;4.42;;;2.40;;
78453;SDS011;67750;55.832;49.124;2023-06-01T06:21:54;4.50;;;2.75;;
78453;SDS011;67750;55.832;49.124;2023-06-01T06:24:23;6.05;;;2.47;;
78453;SDS011;67750;55.832;49.124;2023-06-01T06:26:52;7.83;;;2.40;;
78453;SDS011;67750;55.832;49.124;2023-06-01T06:29:22;4.20;;;2.40;;
78453;SDS011;67750;55.832;49.124;2023-06-01T06:31:51;5.03;;;2.35;;
78453;SDS011;67750;55.832;49.124;2023-06-01T06:34:21;7.72;;;2.30;;
78453;SDS011;67750;55.832;49.124;2023-06-01T06:36:51;4.85;;;2.08;;
78453;SDS011;67750;55.832;49.124;2023-06-01T06:39:21;3.50;;;2.17;;
78453;SDS011;67750;55.832;49.124;2023-06-01T06:41:50;4.33;;;2.00;;
78453;SDS011;67750;55.832;49.124;2023-06-01T06:44:20;4.90;;;1.95;;
78453;SDS011;67750;55.832;49.124;2023-06-01T06:46:49;6.17;;;2.62;;
78453;SDS011;67750;55.832;49.124;2023-06-01T06:49:19;4.08;;;2.17;;
78453;SDS011;67750;55.832;49.124;2023-06-01T06:51:49;4.20;;;2.10;;
78453;SDS011;67750;55.832;49.124;2023-06-01T06:54:18;7.65;;;2.30;;
78453;SDS011;67750;55.832;49.124;2023-06-01T06:56:48;7.87;;;2.17;;
78453;SDS011;67750;55.832;49.124;2023-06-01T06:59:17;5.85;;;2.20;;
78453;SDS011;67750;55.832;49.124;2023-06-01T07:01:47;5.35;;;2.27;;
78453;SDS011;67750;55.832;49.124;2023-06-01T07:04:17;4.17;;;2.40;;
78453;SDS011;67750;55.832;49.124;2023-06-01T07:06:47;4.87;;;2.17;;
78453;SDS011;67750;55.832;49.124;2023-06-01T07:09:18;7.40;;;2.67;;
78453;SDS011;67750;55.832;49.124;2023-06-01T07:11:48;5.95;;;1.92;;
78453;SDS011;67750;55.832;49.124;2023-06-01T07:14:17;4.35;;;2.15;;
78453;SDS011;67750;55.832;49.124;2023-06-01T07:16:47;4.10;;;2.27;;
78453;SDS011;67750;55.832;49.124;2023-06-01T07:19:17;4.10;;;1.82;;
78453;SDS011;67750;55.832;49.124;2023-06-01T07:21:47;3.40;;;2.40;;
78453;SDS011;67750;55.832;49.124;2023-06-01T07:24:17;3.83;;;2.40;;
78453;SDS011;67750;55.832;49.124;2023-06-01T07:26:47;4.92;;;1.80;;
78453;SDS011;67750;55.832;49.124;2023-06-01T07:29:18;3.95;;;1.92;;
78453;SDS011;67750;55.832;49.124;2023-06-01T07:31:49;3.25;;;2.05;;
78453;SDS011;67750;55.832;49.124;2023-06-01T07:34:19;4.50;;;2.42;;
78453;SDS011;67750;55.832;49.124;2023-06-01T07:36:48;6.10;;;2.40;;
78453;SDS011;67750;55.832;49.124;2023-06-01T07:39:18;3.12;;;1.85;;
78453;SDS011;67750;55.832;49.124;2023-06-01T07:41:47;3.00;;;1.80;;
78453;SDS011;67750;55.832;49.124;2023-06-01T07:44:54;2.58;;;1.70;;
78453;SDS011;67750;55.832;49.124;2023-06-01T07:46:50;5.83;;;1.50;;
78453;SDS011;67750;55.832;49.124;2023-06-01T07:49:20;4.22;;;1.85;;
78453;SDS011;67750;55.832;49.124;2023-06-01T07:51:49;8.73;;;2.15;;
78453;SDS011;67750;55.832;49.124;2023-06-01T07:54:20;3.47;;;1.90;;
78453;SDS011;67750;55.832;49.124;2023-06-01T07:56:49;4.10;;;1.90;;
78453;SDS011;67750;55.832;49.124;2023-06-01T07:59:19;4.65;;;1.87;;
78453;SDS011;67750;55.832;49.124;2023-06-01T08:01:49;5.10;;;1.70;;
78453;SDS011;67750;55.832;49.124;2023-06-01T08:04:19;3.45;;;1.75;;
78453;SDS011;67750;55.832;49.124;2023-06-01T08:06:49;3.12;;;1.82;;
78453;SDS011;67750;55.832;49.124;2023-06-01T08:09:38;3.00;;;1.60;;
78453;SDS011;67750;55.832;49.124;2023-06-01T08:14:39;3.47;;;1.70;;
78453;SDS011;67750;55.832;49.124;2023-06-01T08:17:10;3.25;;;1.62;;
78453;SDS011;67750;55.832;49.124;2023-06-01T08:19:40;4.15;;;1.92;;
78453;SDS011;67750;55.832;49.124;2023-06-01T08:22:10;3.70;;;1.92;;
78453;SDS011;67750;55.832;49.124;2023-06-01T08:24:39;4.75;;;1.95;;
78453;SDS011;67750;55.832;49.124;2023-06-01T08:29:58;6.37;;;1.80;;
78453;SDS011;67750;55.832;49.124;2023-06-01T08:32:28;4.42;;;1.82;;
78453;SDS011;67750;55.832;49.124;2023-06-01T08:34:58;3.22;;;1.85;;
78453;SDS011;67750;55.832;49.124;2023-06-01T08:37:27;2.62;;;1.75;;
78453;SDS011;67750;55.832;49.124;2023-06-01T08:39:57;4.15;;;1.80;;
78453;SDS011;67750;55.832;49.124;2023-06-01T08:45:00;5.00;;;2.10;;
78453;SDS011;67750;55.832;49.124;2023-06-01T08:47:31;3.92;;;1.92;;
78453;SDS011;67750;55.832;49.124;2023-06-01T08:50:01;3.67;;;2.10;;
78453;SDS011;67750;55.832;49.124;2023-06-01T08:52:32;3.67;;;1.70;;
78453;SDS011;67750;55.832;49.124;2023-06-01T08:55:04;5.62;;;1.80;;
78453;SDS011;67750;55.832;49.124;2023-06-01T08:57:34;5.45;;;1.70;;
78453;SDS011;67750;55.832;49.124;2023-06-01T09:00:04;2.40;;;1.70;;
78453;SDS011;67750;55.832;49.124;2023-06-01T09:02:35;4.37;;;1.90;;
78453;SDS011;67750;55.832;49.124;2023-06-01T09:05:04;6.15;;;1.82;;
78453;SDS011;67750;55.832;49.124;2023-06-01T09:07:34;3.35;;;1.50;;
78453;SDS011;67750;55.832;49.124;2023-06-01T09:10:04;2.85;;;1.65;;
78453;SDS011;67750;55.832;49.124;2023-06-01T09:12:34;4.28;;;1.98;;
78453;SDS011;67750;55.832;49.124;2023-06-01T09:20:44;6.47;;;2.40;;
78453;SDS011;67750;55.832;49.124;2023-06-01T09:26:05;5.67;;;3.55;;
78453;SDS011;67750;55.832;49.124;2023-06-01T09:34:15;3.22;;;2.22;;
78453;SDS011;67750;55.832;49.124;2023-06-01T09:37:05;3.55;;;2.10;;
78453;SDS011;67750;55.832;49.124;2023-06-01T09:39:35;3.72;;;2.22;;
78453;SDS011;67750;55.832;49.124;2023-06-01T09:42:04;5.67;;;2.37;;
78453;SDS011;67750;55.832;49.124;2023-06-01T09:47:23;3.65;;;2.70;;
78453;SDS011;67750;55.832;49.124;2023-06-01T09:49:54;4.20;;;2.42;;
78453;SDS011;67750;55.832;49.124;2023-06-01T09:52:25;7.67;;;2.52;;
78453;SDS011;67750;55.832;49.124;2023-06-01T09:54:55;2.58;;;1.90;;
78453;SDS011;67750;55.832;49.124;2023-06-01T09:57:27;2.72;;;2.00;;
78453;SDS011;67750;55.832;49.124;2023-06-01T09:59:56;4.50;;;2.30;;
78453;SDS011;67750;55.832;49.124;2023-06-01T10:02:26;3.47;;;2.27;;
78453;SDS011;67750;55.832;49.124;2023-06-01T10:04:58;3.95;;;2.30;;
78453;SDS011;67750;55.832;49.124;2023-06-01T10:07:29;3.75;;;2.30;;
78453;SDS011;67750;55.832;49.124;2023-06-01T10:10:00;4.00;;;2.58;;
78453;SDS011;67750;55.832;49.124;2023-06-01T10:12:31;4.97;;;2.70;;
78453;SDS011;67750;55.832;49.124;2023-06-01T10:15:01;5.37;;;2.62;;
78453;SDS011;67750;55.832;49.124;2023-06-01T10:17:33;3.98;;;2.50;;
78453;SDS011;67750;55.832;49.124;2023-06-01T10:20:05;5.62;;;2.27;;
78453;SDS011;67750;55.832;49.124;2023-06-01T10:22:35;5.00;;;2.45;;
78453;SDS011;67750;55.832;49.124;2023-06-01T10:25:06;4.10;;;2.37;;
78453;SDS011;67750;55.832;49.124;2023-06-01T10:28:12;8.45;;;2.90;;
78453;SDS011;67750;55.832;49.124;2023-06-01T10:30:08;3.70;;;2.35;;
78453;SDS011;67750;55.832;49.124;2023-06-01T10:40:49;5.45;;;3.02;;
78453;SDS011;67750;55.832;49.124;2023-06-01T10:48:57;4.42;;;2.45;;
78453;SDS011;67750;55.832;49.124;2023-06-01T10:51:27;4.50;;;2.70;;
78453;SDS011;67750;55.832;49.124;2023-06-01T10:56:47;3.37;;;2.30;;
78453;SDS011;67750;55.832;49.124;2023-06-01T10:59:18;5.28;;;2.95;;
78453;SDS011;67750;55.832;49.124;2023-06-01T11:01:47;5.47;;;3.22;;
78453;SDS011;67750;55.832;49.124;2023-06-01T11:04:23;6.28;;;2.80;;
78453;SDS011;67750;55.832;49.124;2023-06-01T11:06:48;5.67;;;3.12;;
78453;SDS011;67750;55.832;49.124;2023-06-01T11:09:17;4.17;;;2.67;;
78453;SDS011;67750;55.832;49.124;2023-06-01T11:14:36;4.17;;;2.77;;
78453;SDS011;67750;55.832;49.124;2023-06-01T11:22:46;4.05;;;2.55;;
78453;SDS011;67750;55.832;49.124;2023-06-01T11:25:16;4.45;;;2.90;;
78453;SDS011;67750;55.832;49.124;2023-06-01T11:27:46;7.85;;;3.10;;
78453;SDS011;67750;55.832;49.124;2023-06-01T11:30:18;5.05;;;3.00;;
78453;SDS011;67750;55.832;49.124;2023-06-01T11:32:48;6.10;;;3.20;;
78453;SDS011;67750;55.832;49.124;2023-06-01T11:35:20;4.03;;;2.87;;
78453;SDS011;67750;55.832;49.124;2023-06-01T11:40:57;6.90;;;2.87;;
78453;SDS011;67750;55.832;49.124;2023-06-01T11:43:12;7.55;;;3.25;;
78453;SDS011;67750;55.832;49.124;2023-06-01T11:45:42;5.95;;;3.20;;
78453;SDS011;67750;55.832;49.124;2023-06-01T11:48:11;5.10;;;3.05;;
78453;SDS011;67750;55.832;49.124;2023-06-01T11:50:45;4.53;;;2.87;;
78453;SDS011;67750;55.832;49.124;2023-06-01T11:53:13;4.97;;;2.83;;
78453;SDS011;67750;55.832;49.124;2023-06-01T11:58:33;3.90;;;2.90;;
78453;SDS011;67750;55.832;49.124;2023-06-01T12:01:03;5.30;;;2.77;;
78453;SDS011;67750;55.832;49.124;2023-06-01T12:03:34;5.85;;;3.50;;
78453;SDS011;67750;55.832;49.124;2023-06-01T12:06:05;5.10;;;2.90;;
78453;SDS011;67750;55.832;49.124;2023-06-01T12:08:36;6.10;;;3.10;;
78453;SDS011;67750;55.832;49.124;2023-06-01T12:11:06;6.00;;;3.33;;
78453;SDS011;67750;55.832;49.124;2023-06-01T12:13:36;7.17;;;3.50;;
78453;SDS011;67750;55.832;49.124;2023-06-01T12:16:06;4.72;;;3.10;;
78453;SDS011;67750;55.832;49.124;2023-06-01T12:18:36;5.47;;;3.17;;
78453;SDS011;67750;55.832;49.124;2023-06-01T12:23:55;5.30;;;3.22;;
78453;SDS011;67750;55.832;49.124;2023-06-01T12:26:34;4.90;;;3.02;;
78453;SDS011;67750;55.832;49.124;2023-06-01T12:28:57;6.95;;;3.50;;
78453;SDS011;67750;55.832;49.124;2023-06-01T12:31:26;5.33;;;2.90;;
78453;SDS011;67750;55.832;49.124;2023-06-01T12:33:56;5.10;;;3.22;;
78453;SDS011;67750;55.832;49.124;2023-06-01T12:39:15;6.05;;;3.27;;
78453;SDS011;67750;55.832;49.124;2023-06-01T12:44:34;5.33;;;2.55;;
78453;SDS011;67750;55.832;49.124;2023-06-01T12:47:04;6.58;;;3.85;;
78453;SDS011;67750;55.832;49.124;2023-06-01T12:49:34;5.03;;;2.70;;
78453;SDS011;67750;55.832;49.124;2023-06-01T12:52:05;6.00;;;3.05;;
78453;SDS011;67750;55.832;49.124;2023-06-01T12:54:34;3.62;;;2.77;;
78453;SDS011;67750;55.832;49.124;2023-06-01T12:57:11;5.53;;;3.30;;
78453;SDS011;67750;55.832;49.124;2023-06-01T12:59:35;8.20;;;3.65;;
78453;SDS011;67750;55.832;49.124;2023-06-01T13:02:05;4.47;;;3.35;;
78453;SDS011;67750;55.832;49.124;2023-06-01T13:04:34;8.60;;;3.37;;
78453;SDS011;67750;55.832;49.124;2023-06-01T13:07:04;5.37;;;2.90;;
78453;SDS011;67750;55.832;49.124;2023-06-01T13:09:34;8.48;;;3.52;;
78453;SDS011;67750;55.832;49.124;2023-06-01T13:12:04;5.20;;;2.90;;
78453;SDS011;67750;55.832;49.124;2023-06-01T13:14:34;4.65;;;2.87;;
78453;SDS011;67750;55.832;49.124;2023-06-01T13:17:03;7.10;;;3.12;;
78453;SDS011;67750;55.832;49.124;2023-06-01T13:19:33;7.70;;;3.22;;
78453;SDS011;67750;55.832;49.124;2023-06-01T13:22:02;6.30;;;3.05;;
78453;SDS011;67750;55.832;49.124;2023-06-01T13:24:32;5.75;;;3.12;;
78453;SDS011;67750;55.832;49.124;2023-06-01T13:27:01;5.80;;;3.00;;
78453;SDS011;67750;55.832;49.124;2023-06-01T13:29:31;5.55;;;3.15;;
78453;SDS011;67750;55.832;49.124;2023-06-01T13:32:01;4.67;;;2.80;;
78453;SDS011;67750;55.832;49.124;2023-06-01T13:34:30;6.30;;;3.00;;
78453;SDS011;67750;55.832;49.124;2023-06-01T13:37:00;4.03;;;3.00;;
78453;SDS011;67750;55.832;49.124;2023-06-01T13:39:29;9.25;;;3.12;;
78453;SDS011;67750;55.832;49.124;2023-06-01T13:41:59;5.83;;;3.45;;
78453;SDS011;67750;55.832;49.124;2023-06-01T13:44:29;5.50;;;3.10;;
78453;SDS011;67750;55.832;49.124;2023-06-01T13:46:59;4.22;;;3.10;;
78453;SDS011;67750;55.832;49.124;2023-06-01T13:49:29;6.92;;;2.92;;
78453;SDS011;67750;55.832;49.124;2023-06-01T13:51:58;5.70;;;2.87;;
78453;SDS011;67750;55.832;49.124;2023-06-01T13:54:28;6.12;;;2.83;;
78453;SDS011;67750;55.832;49.124;2023-06-01T13:56:57;6.25;;;3.20;;
78453;SDS011;67750;55.832;49.124;2023-06-01T13:59:29;5.80;;;3.35;;
78453;SDS011;67750;55.832;49.124;2023-06-01T14:02:00;5.45;;;3.00;;
78453;SDS011;67750;55.832;49.124;2023-06-01T14:04:30;11.08;;;3.33;;
78453;SDS011;67750;55.832;49.124;2023-06-01T14:07:00;5.42;;;3.70;;
78453;SDS011;67750;55.832;49.124;2023-06-01T14:09:29;5.10;;;3.62;;
78453;SDS011;67750;55.832;49.124;2023-06-01T14:11:59;6.30;;;3.25;;
78453;SDS011;67750;55.832;49.124;2023-06-01T14:14:28;4.55;;;3.42;;
78453;SDS011;67750;55.832;49.124;2023-06-01T14:16:58;7.67;;;3.42;;
78453;SDS011;67750;55.832;49.124;2023-06-01T14:22:19;6.50;;;3.30;;
78453;SDS011;67750;55.832;49.124;2023-06-01T14:24:48;8.63;;;3.98;;
78453;SDS011;67750;55.832;49.124;2023-06-01T14:27:18;7.67;;;3.85;;
78453;SDS011;67750;55.832;49.124;2023-06-01T14:29:48;6.12;;;3.60;;
78453;SDS011;67750;55.832;49.124;2023-06-01T14:32:17;6.95;;;3.70;;
78453;SDS011;67750;55.832;49.124;2023-06-01T14:34:47;5.92;;;3.30;;
78453;SDS011;67750;55.832;49.124;2023-06-01T14:37:16;5.70;;;3.55;;
78453;SDS011;67750;55.832;49.124;2023-06-01T14:39:46;6.53;;;3.60;;
78453;SDS011;67750;55.832;49.124;2023-06-01T14:42:17;4.92;;;3.58;;
78453;SDS011;67750;55.832;49.124;2023-06-01T14:44:46;6.28;;;3.80;;
78453;SDS011;67750;55.832;49.124;2023-06-01T14:47:16;7.70;;;4.75;;
78453;SDS011;67750;55.832;49.124;2023-06-01T14:49:45;6.03;;;3.92;;
78453;SDS011;67750;55.832;49.124;2023-06-01T14:52:15;7.42;;;4.12;;
78453;SDS011;67750;55.832;49.124;2023-06-01T14:54:44;12.98;;;4.78;;
78453;SDS011;67750;55.832;49.124;2023-06-01T14:57:15;7.40;;;4.10;;
78453;SDS011;67750;55.832;49.124;2023-06-01T14:59:45;7.00;;;4.00;;
78453;SDS011;67750;55.832;49.124;2023-06-01T15:02:15;6.10;;;3.92;;
78453;SDS011;67750;55.832;49.124;2023-06-01T15:04:44;8.60;;;4.72;;
78453;SDS011;67750;55.832;49.124;2023-06-01T15:07:14;6.05;;;4.15;;
78453;SDS011;67750;55.832;49.124;2023-06-01T15:09:43;6.65;;;4.35;;
78453;SDS011;67750;55.832;49.124;2023-06-01T15:12:13;6.78;;;3.87;;
78453;SDS011;67750;55.832;49.124;2023-06-01T15:14:42;6.78;;;3.70;;
78453;SDS011;67750;55.832;49.124;2023-06-01T15:17:12;5.85;;;3.70;;
78453;SDS011;67750;55.832;49.124;2023-06-01T15:19:41;8.05;;;4.30;;
78453;SDS011;67750;55.832;49.124;2023-06-01T15:24:40;7.95;;;4.47;;
78453;SDS011;67750;55.832;49.124;2023-06-01T15:27:10;4.50;;;3.20;;
78453;SDS011;67750;55.832;49.124;2023-06-01T15:29:39;6.62;;;4.15;;
78453;SDS011;67750;55.832;49.124;2023-06-01T15:32:09;9.28;;;3.90;;
78453;SDS011;67750;55.832;49.124;2023-06-01T15:34:38;7.75;;;4.22;;
78453;SDS011;67750;55.832;49.124;2023-06-01T15:37:08;7.72;;;4.40;;
78453;SDS011;67750;55.832;49.124;2023-06-01T15:39:38;9.38;;;4.25;;
78453;SDS011;67750;55.832;49.124;2023-06-01T15:42:08;9.00;;;5.00;;
78453;SDS011;67750;55.832;49.124;2023-06-01T15:44:39;8.75;;;5.15;;
78453;SDS011;67750;55.832;49.124;2023-06-01T15:47:09;8.48;;;4.45;;
78453;SDS011;67750;55.832;49.124;2023-06-01T15:49:39;8.75;;;3.72;;
78453;SDS011;67750;55.832;49.124;2023-06-01T15:52:09;7.37;;;4.03;;
78453;SDS011;67750;55.832;49.124;2023-06-01T15:54:39;5.47;;;3.70;;
78453;SDS011;67750;55.832;49.124;2023-06-01T15:57:09;6.25;;;3.52;;
78453;SDS011;67750;55.832;49.124;2023-06-01T15:59:38;6.10;;;3.90;;
78453;SDS011;67750;55.832;49.124;2023-06-01T16:02:08;8.10;;;4.03;;
78453;SDS011;67750;55.832;49.124;2023-06-01T16:04:38;6.75;;;3.95;;
78453;SDS011;67750;55.832;49.124;2023-06-01T16:07:07;6.12;;;3.67;;
78453;SDS011;67750;55.832;49.124;2023-06-01T16:09:37;5.47;;;3.60;;
78453;SDS011;67750;55.832;49.124;2023-06-01T16:12:07;4.70;;;3.17;;
78453;SDS011;67750;55.832;49.124;2023-06-01T16:14:36;6.17;;;3.20;;
78453;SDS011;67750;55.832;49.124;2023-06-01T16:17:06;6.60;;;3.77;;
78453;SDS011;67750;55.832;49.124;2023-06-01T16:19:35;8.48;;;4.17;;
78453;SDS011;67750;55.832;49.124;2023-06-01T16:22:05;8.53;;;3.62;;
78453;SDS011;67750;55.832;49.124;2023-06-01T16:24:35;6.08;;;3.80;;